Time;durP1;ratioP1;P1;durP2;ratioP2;P2;SDS_P1;SDS_P2;PMS_P1;PMS_P2;Temp;Humidity;BMP_temperature;BMP_pressure;BME280_temperature;BME280_humidity;BME280_pressure;Samples;Min_cycle;Max_cycle;Signal;HPM_P1;HPM_P2
2022/10/18 00:01:33;;;;;;;11.40;6.28;;;18.00;99.90;;;;;;5092778;28;20020;-41
2022/10/18 00:03:58;;;;;;;11.13;6.97;;;18.00;99.90;;;;;;5093277;28;20500;-43
2022/10/18 00:06:24;;;;;;;9.93;6.50;;;18.10;99.90;;;;;;5092767;28;20020;-45
2022/10/18 00:08:50;;;;;;;11.25;5.65;;;18.00;99.90;;;;;;5092290;28;20028;-51
2022/10/18 00:11:15;;;;;;;13.95;5.90;;;18.20;99.90;;;;;;5092950;28;20069;-45
2022/10/18 00:13:41;;;;;;;9.18;5.30;;;18.10;99.90;;;;;;5092345;28;20534;-46
2022/10/18 00:16:11;;;;;;;11.15;5.50;;;18.00;99.90;;;;;;5092628;28;20031;-46
2022/10/18 00:18:37;;;;;;;10.43;5.25;;;18.00;99.90;;;;;;5092130;28;20095;-45
2022/10/18 00:21:07;;;;;;;8.93;5.22;;;18.10;99.90;;;;;;5092652;28;20108;-46
2022/10/18 00:23:34;;;;;;;10.75;5.60;;;18.00;99.90;;;;;;5092243;28;20376;-46
2022/10/18 00:26:01;;;;;;;12.07;5.75;;;18.00;99.90;;;;;;5092199;28;20403;-44
2022/10/18 00:28:26;;;;;;;18.75;5.95;;;18.00;99.90;;;;;;5092454;28;20402;-45
2022/10/18 00:30:52;;;;;;;9.07;5.38;;;18.00;99.90;;;;;;5091813;28;20110;-44
2022/10/18 00:33:17;;;;;;;7.45;5.40;;;18.00;99.90;;;;;;5092165;28;20026;-44
2022/10/18 00:35:43;;;;;;;13.80;5.57;;;17.90;99.90;;;;;;5092307;28;20482;-48
2022/10/18 00:38:08;;;;;;;13.65;5.78;;;17.90;99.90;;;;;;5091922;28;20050;-44
2022/10/18 00:40:34;;;;;;;8.13;4.72;;;17.90;99.90;;;;;;5092033;28;20028;-43
2022/10/18 00:42:59;;;;;;;10.02;5.25;;;17.80;99.90;;;;;;5091840;28;20035;-51
2022/10/18 00:45:25;;;;;;;7.95;4.97;;;17.80;99.90;;;;;;5092329;28;20064;-45
2022/10/18 00:47:56;;;;;;;8.00;5.40;;;17.80;99.90;;;;;;5092059;28;20059;-48
2022/10/18 00:50:23;;;;;;;11.38;5.82;;;17.80;99.90;;;;;;5091623;28;20024;-44
2022/10/18 00:52:53;;;;;;;9.32;5.57;;;17.80;99.90;;;;;;5104537;22;20120;-46
2022/10/18 00:55:19;;;;;;;12.05;6.65;;;17.80;99.90;;;;;;5050540;28;20021;-47
2022/10/18 00:57:45;;;;;;;13.07;8.02;;;17.80;99.90;;;;;;5051361;28;20370;-48
2022/10/18 01:00:12;;;;;;;13.77;7.25;;;17.80;99.90;;;;;;5032183;28;20033;-47
2022/10/18 01:02:40;;;;;;;25.65;18.08;;;17.80;99.90;;;;;;5048008;28;20053;-48
2022/10/18 01:05:06;;;;;;;72.35;43.20;;;17.90;99.90;;;;;;5049515;28;20029;-53
2022/10/18 01:07:52;;;;;;;33.83;22.70;;;17.80;99.90;;;;;;5051366;28;20028;-50
2022/10/18 01:10:24;;;;;;;36.50;23.48;;;17.80;99.90;;;;;;5051627;28;20037;-53
2022/10/18 01:12:58;;;;;;;15.63;9.40;;;17.80;99.90;;;;;;5051049;28;20028;-47
2022/10/18 01:15:29;;;;;;;12.57;6.87;;;17.80;99.90;;;;;;5051285;28;20459;-50
2022/10/18 01:18:07;;;;;;;8.15;6.43;;;17.80;99.90;;;;;;5051379;28;20033;-49
2022/10/18 01:24:06;;;;;;;9.30;5.38;;;17.80;99.90;;;;;;5048980;28;20077;-49
2022/10/18 01:27:02;;;;;;;12.30;5.75;;;17.80;99.90;;;;;;5051365;28;20021;-50
2022/10/18 01:29:42;;;;;;;11.13;6.20;;;17.80;99.90;;;;;;5051280;28;20060;-50
2022/10/18 01:32:21;;;;;;;9.15;6.72;;;17.80;99.90;;;;;;5050465;28;20115;-49
2022/10/18 01:34:51;;;;;;;7.55;6.75;;;17.80;99.90;;;;;;5051204;28;20033;-47
2022/10/18 01:37:20;;;;;;;19.45;6.82;;;17.80;99.90;;;;;;5051255;28;20451;-50
2022/10/18 01:39:46;;;;;;;14.85;6.38;;;17.80;99.90;;;;;;5051161;28;20029;-49
2022/10/18 01:42:17;;;;;;;12.43;6.82;;;17.80;99.90;;;;;;5050881;28;20025;-49
2022/10/18 01:44:44;;;;;;;8.90;6.40;;;17.70;99.90;;;;;;5051658;28;20021;-49
2022/10/18 01:47:12;;;;;;;12.02;6.60;;;17.70;99.90;;;;;;5050914;28;20489;-49
2022/10/18 01:49:38;;;;;;;11.65;6.22;;;17.70;99.90;;;;;;5051254;28;20032;-50
2022/10/18 01:52:03;;;;;;;10.95;6.30;;;17.60;99.90;;;;;;5050792;28;20021;-49
2022/10/18 01:54:33;;;;;;;12.23;6.63;;;17.50;99.90;;;;;;5050927;28;20041;-54
2022/10/18 01:57:11;;;;;;;23.85;13.20;;;17.50;99.90;;;;;;5051045;28;20043;-53
2022/10/18 01:59:48;;;;;;;57.15;38.25;;;17.40;99.90;;;;;;5050974;28;20044;-51
2022/10/18 02:02:40;;;;;;;94.53;58.70;;;17.40;99.90;;;;;;5053158;28;20025;-53
2022/10/18 02:05:35;;;;;;;18.67;9.68;;;17.50;99.90;;;;;;5054904;28;20296;-52
2022/10/18 02:08:38;;;;;;;24.88;6.32;;;17.40;99.90;;;;;;5054736;28;20063;-52
2022/10/18 02:11:09;;;;;;;11.45;6.10;;;17.40;99.90;;;;;;5054696;28;20499;-53
2022/10/18 02:13:55;;;;;;;8.55;6.15;;;17.40;99.90;;;;;;5054346;28;20148;-51
2022/10/18 02:16:39;;;;;;;10.43;6.22;;;17.40;99.90;;;;;;5054724;28;20131;-52
2022/10/18 02:19:14;;;;;;;10.07;6.15;;;17.40;99.90;;;;;;5054438;28;20473;-55
2022/10/18 02:21:42;;;;;;;9.27;6.97;;;17.50;99.90;;;;;;5053294;28;20029;-53
2022/10/18 02:24:11;;;;;;;13.02;6.57;;;17.50;99.90;;;;;;5054096;28;20033;-53
2022/10/18 02:26:37;;;;;;;9.70;6.40;;;17.30;99.90;;;;;;5054395;28;20028;-53
2022/10/18 02:29:03;;;;;;;17.25;6.10;;;17.30;99.90;;;;;;5054150;28;20028;-54
2022/10/18 02:31:45;;;;;;;9.25;5.75;;;17.20;99.90;;;;;;5054123;28;20047;-50
2022/10/18 02:34:35;;;;;;;13.05;6.00;;;17.20;99.90;;;;;;5053987;28;20025;-55
2022/10/18 02:37:01;;;;;;;11.48;5.90;;;17.20;99.90;;;;;;5054126;28;20377;-52
2022/10/18 02:39:34;;;;;;;16.67;7.57;;;17.10;99.90;;;;;;5054098;28;20029;-52
2022/10/18 02:42:05;;;;;;;10.25;6.90;;;17.10;99.90;;;;;;5054133;28;20017;-51
2022/10/18 02:44:31;;;;;;;9.35;6.82;;;17.10;99.90;;;;;;5054183;28;20017;-53
2022/10/18 02:46:57;;;;;;;17.73;6.82;;;17.10;99.90;;;;;;5054201;28;20071;-54
2022/10/18 02:49:22;;;;;;;16.35;7.53;;;17.10;99.90;;;;;;5054465;28;20037;-55
2022/10/18 02:51:48;;;;;;;9.68;7.20;;;17.10;99.90;;;;;;5054111;28;20514;-55
2022/10/18 02:54:13;;;;;;;9.77;6.38;;;17.10;99.90;;;;;;5053950;28;20037;-53
2022/10/18 02:56:39;;;;;;;14.20;5.90;;;17.10;99.90;;;;;;5052881;28;20086;-51
2022/10/18 02:59:06;;;;;;;16.30;7.20;;;17.10;99.90;;;;;;5053880;28;20146;-53
2022/10/18 03:01:32;;;;;;;6.15;5.53;;;17.10;99.90;;;;;;5053995;28;20027;-52
2022/10/18 03:03:58;;;;;;;14.75;7.50;;;17.10;99.90;;;;;;5053383;28;20023;-50
2022/10/18 03:06:23;;;;;;;11.82;6.22;;;17.10;99.90;;;;;;5053712;28;20475;-50
2022/10/18 03:08:49;;;;;;;13.50;6.50;;;17.10;99.90;;;;;;5053769;28;20029;-51
2022/10/18 03:11:14;;;;;;;21.27;7.15;;;17.10;99.90;;;;;;5053597;28;20064;-52
2022/10/18 03:13:40;;;;;;;13.52;7.00;;;17.20;99.90;;;;;;5052897;28;20080;-52
2022/10/18 03:16:05;;;;;;;19.88;7.28;;;17.20;99.90;;;;;;5053538;28;20491;-52
2022/10/18 03:18:31;;;;;;;15.68;6.97;;;17.20;99.90;;;;;;5053272;28;20040;-53
2022/10/18 03:20:56;;;;;;;12.65;7.47;;;17.20;99.90;;;;;;5053437;28;20036;-50
2022/10/18 03:23:22;;;;;;;16.30;7.50;;;17.20;99.90;;;;;;5053068;28;20071;-53
2022/10/18 03:25:47;;;;;;;18.95;7.85;;;17.10;99.90;;;;;;5053436;28;20105;-52
2022/10/18 03:28:13;;;;;;;20.98;8.15;;;17.10;99.90;;;;;;5053286;28;20017;-48
2022/10/18 03:30:38;;;;;;;19.67;10.90;;;17.10;99.90;;;;;;5051717;28;20370;-52
2022/10/18 03:33:05;;;;;;;16.90;9.80;;;17.10;99.90;;;;;;5052954;28;20113;-53
2022/10/18 03:35:30;;;;;;;12.55;9.88;;;17.10;99.90;;;;;;5051923;28;20119;-50
2022/10/18 03:37:56;;;;;;;17.23;9.32;;;17.20;99.90;;;;;;5053213;28;20449;-52
2022/10/18 03:40:21;;;;;;;15.77;9.82;;;17.20;99.90;;;;;;5053253;28;20469;-52
2022/10/18 03:42:47;;;;;;;21.83;10.52;;;17.20;99.90;;;;;;5052810;28;20021;-53
2022/10/18 03:45:12;;;;;;;19.55;12.85;;;17.20;99.90;;;;;;5052760;28;20021;-55
2022/10/18 03:47:38;;;;;;;22.17;12.25;;;17.30;99.90;;;;;;5052855;28;20021;-52
2022/10/18 03:50:04;;;;;;;19.40;10.70;;;17.20;99.90;;;;;;5052781;28;20048;-52
2022/10/18 03:52:29;;;;;;;18.40;11.75;;;17.30;99.90;;;;;;5052363;28;20488;-51
2022/10/18 03:54:55;;;;;;;19.00;11.80;;;17.30;99.90;;;;;;5052841;28;20033;-55
2022/10/18 03:57:20;;;;;;;24.33;11.65;;;17.30;99.90;;;;;;5052708;28;20021;-52
2022/10/18 03:59:47;;;;;;;17.33;11.88;;;17.30;99.90;;;;;;5052468;28;20079;-51
2022/10/18 04:02:13;;;;;;;16.48;11.30;;;17.40;99.90;;;;;;5052357;28;20386;-48
2022/10/18 04:04:38;;;;;;;23.70;11.60;;;17.40;99.90;;;;;;5052505;28;20017;-52
2022/10/18 04:07:04;;;;;;;19.77;10.60;;;17.40;99.90;;;;;;5052530;28;20040;-54
2022/10/18 04:09:29;;;;;;;17.02;9.70;;;17.30;99.90;;;;;;5052771;28;20025;-52
2022/10/18 04:11:55;;;;;;;27.77;14.02;;;17.40;99.90;;;;;;5052340;28;20397;-50
2022/10/18 04:14:20;;;;;;;16.42;11.93;;;17.30;99.90;;;;;;5052323;28;20143;-50
2022/10/18 04:16:46;;;;;;;19.27;10.55;;;17.30;99.90;;;;;;5052432;28;20036;-51
2022/10/18 04:19:12;;;;;;;13.93;8.98;;;17.30;99.90;;;;;;5052321;28;20032;-50
2022/10/18 04:21:37;;;;;;;10.40;8.40;;;17.20;99.90;;;;;;5052322;28;20496;-52
2022/10/18 04:24:03;;;;;;;14.45;8.00;;;17.20;99.90;;;;;;5051340;28;20025;-51
2022/10/18 04:26:29;;;;;;;15.10;7.88;;;17.20;99.90;;;;;;5052112;28;20021;-52
2022/10/18 04:28:54;;;;;;;12.10;8.25;;;17.20;99.90;;;;;;5052165;28;20037;-51
2022/10/18 04:31:20;;;;;;;11.68;8.90;;;17.20;99.90;;;;;;5052196;28;20365;-53
2022/10/18 04:33:45;;;;;;;11.80;7.22;;;17.20;99.90;;;;;;5050544;28;20033;-51
2022/10/18 04:36:11;;;;;;;13.40;6.80;;;17.10;99.90;;;;;;5052075;28;20041;-50
2022/10/18 04:38:36;;;;;;;11.90;6.70;;;17.10;99.90;;;;;;5051766;28;20029;-50
2022/10/18 04:41:02;;;;;;;15.13;7.53;;;17.10;99.90;;;;;;5051949;28;20108;-51
2022/10/18 04:43:27;;;;;;;12.30;7.45;;;17.10;99.90;;;;;;5051442;28;20025;-52
2022/10/18 04:45:53;;;;;;;12.20;8.23;;;17.10;99.90;;;;;;5051985;28;20016;-49
2022/10/18 04:48:19;;;;;;;11.38;7.10;;;17.10;99.90;;;;;;5051704;28;20025;-51
2022/10/18 04:50:49;;;;;;;10.98;7.88;;;17.10;99.90;;;;;;5051937;28;20028;-48
2022/10/18 04:53:16;;;;;;;12.73;7.88;;;17.10;99.90;;;;;;5051294;28;20059;-51
2022/10/18 04:55:47;;;;;;;15.40;7.85;;;17.10;99.90;;;;;;5051824;28;20024;-50
2022/10/18 04:58:13;;;;;;;11.95;7.55;;;17.10;99.90;;;;;;5051891;28;20070;-51
2022/10/18 05:00:39;;;;;;;11.18;6.57;;;17.10;99.90;;;;;;5051911;28;20413;-49
2022/10/18 05:03:04;;;;;;;15.43;7.43;;;17.10;99.90;;;;;;5051264;28;20028;-52
2022/10/18 05:05:30;;;;;;;16.48;8.68;;;17.20;99.90;;;;;;5051470;28;20048;-52
2022/10/18 05:07:55;;;;;;;13.32;7.95;;;17.20;99.90;;;;;;5051440;28;20087;-51
2022/10/18 05:10:21;;;;;;;20.25;10.93;;;17.20;99.90;;;;;;5051362;28;20108;-51
2022/10/18 05:12:46;;;;;;;20.13;9.95;;;17.20;99.90;;;;;;5050971;28;20039;-50
2022/10/18 05:15:12;;;;;;;20.63;10.30;;;17.20;99.90;;;;;;5051339;28;20025;-53
2022/10/18 05:17:38;;;;;;;24.35;10.00;;;17.20;99.90;;;;;;5051422;28;20052;-52
2022/10/18 05:20:04;;;;;;;14.02;9.68;;;17.20;99.90;;;;;;5051296;28;20408;-51
2022/10/18 05:22:29;;;;;;;23.25;11.85;;;17.30;99.90;;;;;;5050940;28;20017;-51
2022/10/18 05:24:55;;;;;;;22.40;11.65;;;17.30;99.90;;;;;;5051488;28;20412;-51
2022/10/18 05:27:20;;;;;;;18.92;11.32;;;17.30;99.90;;;;;;5051729;28;20017;-55
2022/10/18 05:29:46;;;;;;;30.85;12.00;;;17.30;99.90;;;;;;5051212;28;20442;-50
2022/10/18 05:32:11;;;;;;;21.85;11.85;;;17.20;99.90;;;;;;5050618;28;20025;-50
2022/10/18 05:34:37;;;;;;;19.48;10.38;;;17.20;99.90;;;;;;5051353;28;20021;-49
2022/10/18 05:37:02;;;;;;;22.25;11.10;;;17.10;99.90;;;;;;5055228;28;20025;-50
2022/10/18 05:39:28;;;;;;;15.98;11.38;;;17.10;99.90;;;;;;5055372;28;20025;-49
2022/10/18 05:41:53;;;;;;;20.85;11.82;;;17.10;99.90;;;;;;5055254;28;20036;-50
2022/10/18 05:44:19;;;;;;;20.45;11.50;;;17.10;99.90;;;;;;5055229;28;20551;-50
2022/10/18 05:46:44;;;;;;;16.25;10.80;;;17.10;99.90;;;;;;5053827;28;20021;-53
2022/10/18 05:49:14;;;;;;;18.60;11.48;;;17.10;99.90;;;;;;5055206;28;20512;-49
2022/10/18 05:51:39;;;;;;;18.70;10.05;;;17.10;99.90;;;;;;5055039;28;20035;-50
2022/10/18 05:54:05;;;;;;;16.55;10.35;;;17.00;99.90;;;;;;5054467;28;20127;-51
2022/10/18 05:56:30;;;;;;;17.42;9.85;;;16.90;99.90;;;;;;5054848;28;20029;-49
2022/10/18 05:58:56;;;;;;;14.40;10.05;;;16.90;99.90;;;;;;5053390;28;20029;-48
2022/10/18 06:01:21;;;;;;;14.65;9.75;;;16.90;99.90;;;;;;5055000;28;20027;-50
2022/10/18 06:03:47;;;;;;;17.73;9.65;;;16.80;99.90;;;;;;5054512;28;20025;-51
2022/10/18 06:06:13;;;;;;;18.63;9.80;;;16.80;99.90;;;;;;5054586;28;20488;-50
2022/10/18 06:08:40;;;;;;;21.20;10.10;;;16.90;99.90;;;;;;5054797;28;20029;-53
2022/10/18 06:11:15;;;;;;;16.73;9.45;;;16.90;99.90;;;;;;5054806;28;20029;-49
2022/10/18 06:13:45;;;;;;;17.75;9.68;;;16.90;99.90;;;;;;5054323;28;20021;-51
2022/10/18 06:16:13;;;;;;;19.38;9.68;;;17.00;99.90;;;;;;5054604;28;20025;-49
2022/10/18 06:18:39;;;;;;;18.00;9.48;;;17.00;99.90;;;;;;5054207;28;20086;-52
2022/10/18 06:21:05;;;;;;;15.95;9.07;;;17.00;99.90;;;;;;5053255;28;20435;-53
2022/10/18 06:23:31;;;;;;;13.98;8.60;;;17.00;99.90;;;;;;5053896;28;20028;-53
2022/10/18 06:26:05;;;;;;;14.23;9.32;;;17.00;99.90;;;;;;5054429;28;20021;-54
2022/10/18 06:28:34;;;;;;;24.33;9.55;;;17.00;99.90;;;;;;5054132;28;20021;-52
2022/10/18 06:30:59;;;;;;;19.10;10.48;;;17.10;99.90;;;;;;5053548;28;20055;-48
2022/10/18 06:33:25;;;;;;;11.70;8.23;;;17.00;99.90;;;;;;5053818;28;20039;-50
2022/10/18 06:35:59;;;;;;;17.30;9.63;;;17.10;99.90;;;;;;5052801;28;20029;-50
2022/10/18 06:38:26;;;;;;;17.42;8.68;;;17.00;99.90;;;;;;5053996;28;20437;-51
2022/10/18 06:40:52;;;;;;;14.85;7.90;;;17.10;99.90;;;;;;5052565;28;20032;-53
2022/10/18 06:43:18;;;;;;;16.48;8.15;;;17.10;99.90;;;;;;5053510;28;20029;-52
2022/10/18 06:45:43;;;;;;;17.05;8.20;;;17.10;99.90;;;;;;5052619;28;20017;-51
2022/10/18 06:48:09;;;;;;;15.70;8.23;;;17.00;99.90;;;;;;5053153;28;20122;-51
2022/10/18 06:50:34;;;;;;;12.95;7.63;;;16.90;99.90;;;;;;5053839;28;20167;-49
2022/10/18 06:53:02;;;;;;;16.10;7.57;;;16.80;99.90;;;;;;5054561;28;20033;-49
2022/10/18 06:55:29;;;;;;;11.15;6.90;;;16.80;99.90;;;;;;5052499;28;20456;-51
2022/10/18 06:57:55;;;;;;;15.30;8.02;;;16.80;99.90;;;;;;5053724;28;20037;-50
2022/10/18 07:00:20;;;;;;;18.20;7.28;;;16.80;99.90;;;;;;5053558;28;20032;-49
2022/10/18 07:02:46;;;;;;;10.93;6.47;;;16.90;99.90;;;;;;5053344;28;20147;-50
2022/10/18 07:05:11;;;;;;;14.52;6.80;;;16.90;99.90;;;;;;5053649;28;20106;-51
2022/10/18 07:07:37;;;;;;;12.05;6.95;;;16.90;99.90;;;;;;5053519;28;20370;-51
2022/10/18 07:10:03;;;;;;;10.43;5.90;;;16.90;99.90;;;;;;5053451;28;20039;-51
2022/10/18 07:12:30;;;;;;;13.32;6.47;;;16.90;99.90;;;;;;5052952;28;20485;-54
2022/10/18 07:14:55;;;;;;;9.82;6.45;;;16.90;99.90;;;;;;5053948;28;20060;-51
2022/10/18 07:17:21;;;;;;;10.70;5.70;;;17.00;99.90;;;;;;5053342;28;20484;-54
2022/10/18 07:19:46;;;;;;;12.63;7.97;;;17.10;99.90;;;;;;5053263;28;20108;-51
2022/10/18 07:22:12;;;;;;;12.93;5.90;;;17.20;99.90;;;;;;5053012;28;20044;-54
2022/10/18 07:24:38;;;;;;;11.27;6.43;;;17.20;99.90;;;;;;5053207;28;20477;-54
2022/10/18 07:27:03;;;;;;;10.18;5.53;;;17.20;99.90;;;;;;5053231;28;20477;-54
2022/10/18 07:29:29;;;;;;;11.45;6.68;;;17.30;99.90;;;;;;5051784;28;20060;-51
2022/10/18 07:31:55;;;;;;;11.00;5.50;;;17.40;99.90;;;;;;5052359;28;20496;-49
2022/10/18 07:34:20;;;;;;;9.80;5.47;;;17.40;99.90;;;;;;5052932;28;20029;-51
2022/10/18 07:36:45;;;;;;;11.25;6.50;;;17.40;99.90;;;;;;5052907;28;20507;-50
2022/10/18 07:39:11;;;;;;;8.88;5.07;;;17.50;99.90;;;;;;5052859;28;20033;-53
2022/10/18 07:41:37;;;;;;;9.68;5.20;;;17.50;99.90;;;;;;5052856;28;20029;-53
2022/10/18 07:44:03;;;;;;;9.00;5.30;;;17.50;99.90;;;;;;5052882;28;20017;-54
2022/10/18 07:46:29;;;;;;;9.18;5.78;;;17.60;99.90;;;;;;5053229;28;20025;-53
2022/10/18 07:48:55;;;;;;;11.32;6.20;;;17.70;99.90;;;;;;5052914;28;20032;-52
2022/10/18 07:51:21;;;;;;;11.23;5.72;;;17.70;99.90;;;;;;5052626;28;20036;-49
2022/10/18 07:53:47;;;;;;;11.15;6.43;;;17.70;99.90;;;;;;5052381;28;20262;-51
2022/10/18 07:56:15;;;;;;;6.90;4.93;;;17.70;99.90;;;;;;5052795;28;20401;-53
2022/10/18 07:58:45;;;;;;;7.85;5.88;;;17.80;99.90;;;;;;5051630;28;20467;-52
2022/10/18 08:01:11;;;;;;;9.52;5.90;;;17.80;99.90;;;;;;5052682;28;20032;-53
2022/10/18 08:03:37;;;;;;;9.85;5.70;;;17.90;99.90;;;;;;5052387;28;20025;-54
2022/10/18 08:06:04;;;;;;;13.68;5.97;;;18.00;99.90;;;;;;5051487;28;20025;-54
2022/10/18 08:08:31;;;;;;;15.00;6.93;;;18.00;99.90;;;;;;5052644;28;20469;-54
2022/10/18 08:11:09;;;;;;;9.43;5.97;;;18.10;99.90;;;;;;5052741;28;20032;-51
2022/10/18 08:13:35;;;;;;;14.20;6.93;;;18.20;99.90;;;;;;5050644;28;20524;-50
2022/10/18 08:16:06;;;;;;;12.10;7.53;;;18.40;99.90;;;;;;5050852;28;20049;-50
2022/10/18 08:18:31;;;;;;;12.73;6.20;;;18.50;99.90;;;;;;5050851;28;20052;-50
2022/10/18 08:21:01;;;;;;;13.02;6.32;;;18.70;99.90;;;;;;5052220;28;20033;-51
2022/10/18 08:23:26;;;;;;;9.50;5.35;;;18.90;99.90;;;;;;5051719;28;20044;-51
2022/10/18 08:25:52;;;;;;;12.93;6.07;;;19.10;99.90;;;;;;5052383;28;20043;-50
2022/10/18 08:28:17;;;;;;;10.85;6.00;;;19.30;99.90;;;;;;5051927;28;20429;-52
2022/10/18 08:30:43;;;;;;;8.57;5.53;;;19.40;99.90;;;;;;5051469;28;20086;-53
2022/10/18 08:33:09;;;;;;;8.32;4.90;;;19.40;99.90;;;;;;5050274;28;20032;-53
2022/10/18 08:35:34;;;;;;;9.85;6.35;;;19.40;99.90;;;;;;5052028;28;20025;-50
2022/10/18 08:38:00;;;;;;;9.10;6.18;;;19.40;99.90;;;;;;5050775;28;20392;-49
2022/10/18 08:40:26;;;;;;;12.82;5.35;;;19.40;99.90;;;;;;5051674;28;20025;-49
2022/10/18 08:42:56;;;;;;;8.35;6.35;;;19.50;99.90;;;;;;5051349;28;20017;-52
2022/10/18 08:45:22;;;;;;;7.25;5.75;;;19.50;99.90;;;;;;5051771;28;20098;-52
2022/10/18 08:47:50;;;;;;;13.27;6.18;;;19.60;99.90;;;;;;5051671;28;20494;-52
2022/10/18 08:50:19;;;;;;;7.60;5.00;;;19.70;99.90;;;;;;5052183;28;20027;-54
2022/10/18 08:52:50;;;;;;;8.20;5.18;;;19.80;99.90;;;;;;5051397;28;20484;-52
2022/10/18 08:55:44;;;;;;;15.10;6.38;;;19.80;99.90;;;;;;5050343;28;20097;-52
2022/10/18 08:58:25;;;;;;;9.07;5.25;;;19.90;99.90;;;;;;5051610;28;20029;-54
2022/10/18 09:01:00;;;;;;;9.38;5.93;;;19.90;99.90;;;;;;5051482;28;20051;-53
2022/10/18 09:03:37;;;;;;;;;;;19.70;99.90;;;;;;5051660;28;20031;-50
2022/10/18 09:06:14;;;;;;;10.20;6.20;;;19.70;99.90;;;;;;5051427;28;19915;-51
2022/10/18 09:09:04;;;;;;;5.82;5.22;;;19.60;99.90;;;;;;5050281;28;20021;-54
2022/10/18 09:11:50;;;;;;;5.25;4.70;;;19.40;99.90;;;;;;5051117;28;20384;-52
2022/10/18 09:14:31;;;;;;;8.38;4.88;;;19.30;99.90;;;;;;5050536;28;20416;-53
2022/10/18 09:17:18;;;;;;;10.82;5.50;;;19.10;99.90;;;;;;5051286;28;20045;-51
2022/10/18 09:19:55;;;;;;;10.93;5.47;;;19.10;99.90;;;;;;5051109;28;20481;-49
2022/10/18 09:22:32;;;;;;;4.65;4.10;;;19.00;99.90;;;;;;5049522;28;20527;-52
2022/10/18 09:25:13;;;;;;;8.10;3.70;;;18.90;99.90;;;;;;5051278;28;20117;-54
2022/10/18 09:27:50;;;;;;;8.13;3.88;;;18.80;99.90;;;;;;5051167;28;20049;-51
2022/10/18 09:30:31;;;;;;;6.45;3.88;;;18.80;99.90;;;;;;5051552;28;20166;-54
2022/10/18 09:33:14;;;;;;;4.22;3.40;;;18.80;99.90;;;;;;5050670;28;20025;-53
2022/10/18 09:36:00;;;;;;;3.55;3.22;;;18.80;99.90;;;;;;5051463;28;20060;-53
2022/10/18 09:38:33;;;;;;;6.57;4.10;;;18.90;99.90;;;;;;5051267;28;20032;-54
2022/10/18 09:41:08;;;;;;;6.82;3.20;;;19.00;99.90;;;;;;5050976;28;20028;-49
2022/10/18 09:43:48;;;;;;;3.25;2.60;;;19.10;99.90;;;;;;5050851;28;20029;-53
2022/10/18 09:46:15;;;;;;;4.03;2.63;;;19.20;99.90;;;;;;5050960;28;20025;-54
2022/10/18 09:48:48;;;;;;;4.78;2.83;;;19.30;99.90;;;;;;5051019;28;20025;-50
2022/10/18 09:51:27;;;;;;;3.10;2.50;;;19.50;99.90;;;;;;5051170;28;20099;-51
2022/10/18 09:54:25;;;;;;;4.00;2.72;;;19.70;99.90;;;;;;5050424;28;20037;-50
2022/10/18 09:57:07;;;;;;;3.78;3.05;;;19.80;99.90;;;;;;5039442;28;20034;-52
2022/10/18 09:59:41;;;;;;;31.48;28.17;;;19.80;99.90;;;;;;5050955;28;20275;-49
2022/10/18 10:02:15;;;;;;;12.20;9.35;;;19.90;99.90;;;;;;5050507;28;20028;-50
2022/10/18 10:04:40;;;;;;;5.65;3.67;;;20.00;99.90;;;;;;5050619;28;20022;-53
2022/10/18 10:07:10;;;;;;;3.45;2.47;;;20.30;99.90;;;;;;5050691;28;20377;-48
2022/10/18 10:10:02;;;;;;;3.22;1.80;;;20.70;99.90;;;;;;5050518;28;20133;-50
2022/10/18 10:12:46;;;;;;;3.08;1.75;;;20.90;99.90;;;;;;5049179;28;20492;-54
2022/10/18 10:15:40;;;;;;;2.20;1.80;;;20.90;99.90;;;;;;5051673;28;20037;-50
2022/10/18 10:18:28;;;;;;;2.55;1.73;;;20.90;99.90;;;;;;5049504;28;20062;-51
2022/10/18 10:20:58;;;;;;;1.92;1.38;;;20.90;99.90;;;;;;5050562;28;20515;-50
2022/10/18 10:23:35;;;;;;;3.03;1.42;;;20.80;99.90;;;;;;5052919;28;20021;-50
2022/10/18 10:26:22;;;;;;;3.30;2.15;;;20.90;99.90;;;;;;5054223;28;20032;-52
2022/10/18 10:28:47;;;;;;;1.77;1.38;;;20.90;99.90;;;;;;5053789;28;20055;-53
2022/10/18 10:31:26;;;;;;;1.40;1.30;;;20.90;99.90;;;;;;5053678;28;20022;-53
2022/10/18 10:34:13;;;;;;;2.28;1.63;;;20.80;99.90;;;;;;5053887;28;20036;-50
2022/10/18 10:36:47;;;;;;;3.72;1.30;;;20.80;99.90;;;;;;5052286;28;20021;-51
2022/10/18 10:39:18;;;;;;;4.50;1.50;;;20.90;99.90;;;;;;5054205;28;20024;-51
2022/10/18 10:41:48;;;;;;;4.68;2.20;;;20.90;99.90;;;;;;5054026;28;20025;-52
2022/10/18 10:44:22;;;;;;;2.05;1.65;;;20.80;99.90;;;;;;5053695;28;20021;-54
2022/10/18 10:46:50;;;;;;;2.83;1.15;;;20.60;99.90;;;;;;5053753;28;20511;-50
2022/10/18 10:49:21;;;;;;;3.03;1.45;;;20.50;99.90;;;;;;5051844;28;20094;-49
2022/10/18 10:51:54;;;;;;;2.72;1.15;;;20.40;99.90;;;;;;5053544;28;20021;-51
2022/10/18 10:54:24;;;;;;;3.65;1.70;;;20.30;99.90;;;;;;5053439;28;20036;-51
2022/10/18 10:57:11;;;;;;;1.35;0.85;;;20.20;99.90;;;;;;5053572;28;20036;-52
2022/10/18 10:59:47;;;;;;;2.17;2.08;;;20.10;99.90;;;;;;5050805;28;20052;-48
2022/10/18 11:02:14;;;;;;;4.93;1.50;;;20.00;99.90;;;;;;5051706;28;20033;-51
2022/10/18 11:04:41;;;;;;;1.85;1.10;;;19.90;99.90;;;;;;5051716;28;20070;-49
2022/10/18 11:07:33;;;;;;;1.88;1.65;;;19.80;99.90;;;;;;5051841;28;20373;-51
2022/10/18 11:10:13;;;;;;;0.95;0.88;;;19.60;99.90;;;;;;5053349;28;20017;-50
2022/10/18 11:12:48;;;;;;;3.22;1.02;;;19.60;99.90;;;;;;5052654;28;20035;-52
2022/10/18 11:15:27;;;;;;;3.15;2.05;;;19.60;99.90;;;;;;5053400;28;20036;-49
2022/10/18 11:18:30;;;;;;;0.68;0.68;;;19.50;99.90;;;;;;5053271;28;20584;-50
2022/10/18 11:21:07;;;;;;;0.93;0.60;;;19.50;99.90;;;;;;5038957;28;20505;-52
2022/10/18 11:23:35;;;;;;;1.85;0.90;;;19.40;99.90;;;;;;5052803;28;20396;-53
2022/10/18 11:26:49;;;;;;;0.88;0.73;;;19.50;99.90;;;;;;5053150;28;20082;-48
2022/10/18 11:29:27;;;;;;;4.85;0.85;;;19.50;99.90;;;;;;5053066;28;20032;-51
2022/10/18 11:32:18;;;;;;;1.13;1.10;;;19.50;99.90;;;;;;5052152;28;20024;-49
2022/10/18 11:34:54;;;;;;;3.83;0.82;;;19.60;99.90;;;;;;5052725;28;20023;-50
2022/10/18 11:37:47;;;;;;;13.88;4.75;;;19.60;99.90;;;;;;5052980;28;20365;-49
2022/10/18 11:40:46;;;;;;;18.40;13.57;;;19.80;99.90;;;;;;5052656;28;20036;-52
2022/10/18 11:43:26;;;;;;;4.10;1.52;;;20.00;99.90;;;;;;5052310;28;20103;-49
2022/10/18 11:45:52;;;;;;;1.98;0.90;;;20.10;99.90;;;;;;5053008;28;20103;-52
2022/10/18 11:48:36;;;;;;;1.98;0.70;;;20.30;99.90;;;;;;5052752;28;20100;-51
2022/10/18 11:51:04;;;;;;;1.92;0.60;;;20.50;99.90;;;;;;5052760;28;20032;-50
2022/10/18 11:54:05;;;;;;;0.60;0.60;;;20.60;99.90;;;;;;5052189;28;20037;-48
2022/10/18 11:56:57;;;;;;;0.40;0.40;;;20.60;99.90;;;;;;5052561;28;20055;-51
2022/10/18 11:59:59;;;;;;;4.68;0.77;;;20.60;99.90;;;;;;5052235;28;20025;-49
2022/10/18 12:02:49;;;;;;;0.50;0.50;;;20.70;99.90;;;;;;5052320;28;20067;-49
2022/10/18 12:05:16;;;;;;;0.45;0.40;;;20.90;99.90;;;;;;5052320;28;20028;-51
2022/10/18 12:07:52;;;;;;;0.30;0.30;;;20.90;99.90;;;;;;5052556;28;20017;-51
2022/10/18 12:10:19;;;;;;;0.77;0.30;;;20.80;99.90;;;;;;5052381;28;20499;-50
2022/10/18 12:12:51;;;;;;;2.22;0.40;;;20.90;99.90;;;;;;5051907;28;20033;-53
2022/10/18 12:15:23;;;;;;;0.75;0.75;;;20.80;99.90;;;;;;5052408;28;20112;-51
2022/10/18 12:17:54;;;;;;;6.60;1.35;;;20.80;99.90;;;;;;5052219;28;20064;-49
2022/10/18 12:20:28;;;;;;;0.88;0.50;;;20.70;99.90;;;;;;5052180;28;20025;-51
2022/10/18 12:23:06;;;;;;;5.88;4.47;;;20.80;99.90;;;;;;5051903;28;20123;-53
2022/10/18 12:25:35;;;;;;;7.25;5.50;;;20.90;99.90;;;;;;5052343;28;20480;-55
2022/10/18 12:28:26;;;;;;;0.68;0.68;;;20.90;99.90;;;;;;5052029;28;20056;-51
2022/10/18 12:31:06;;;;;;;1.85;0.82;;;20.90;99.90;;;;;;5051388;28;20079;-51
2022/10/18 12:33:39;;;;;;;0.38;0.38;;;20.90;99.90;;;;;;5051713;28;20062;-47
2022/10/18 12:36:20;;;;;;;0.73;0.30;;;20.80;99.90;;;;;;5050601;28;20025;-50
2022/10/18 12:38:54;;;;;;;0.30;0.30;;;20.80;99.90;;;;;;5050751;28;20029;-52
2022/10/18 12:41:29;;;;;;;0.30;0.30;;;20.90;99.90;;;;;;5050385;28;20032;-54
2022/10/18 12:43:57;;;;;;;;;;;20.90;99.90;;;;;;5051634;28;20037;-51
2022/10/18 12:46:23;;;;;;;2.38;0.38;;;21.00;99.90;;;;;;5031443;28;19909;-48
2022/10/18 12:49:04;;;;;;;0.65;0.40;;;21.20;99.90;;;;;;5031745;28;20028;-48
2022/10/18 12:51:30;;;;;;;0.40;0.40;;;21.30;99.90;;;;;;5029867;28;20029;-51
2022/10/18 12:56:28;;;;;;;0.50;0.50;;;21.20;99.90;;;;;;5108236;22;20131;-54
2022/10/18 12:59:14;;;;;;;10.68;7.03;;;21.30;99.90;;;;;;5090805;28;20044;-46
2022/10/18 13:01:49;;;;;;;0.95;0.93;;;21.30;99.90;;;;;;5090253;28;20496;-50
2022/10/18 13:04:27;;;;;;;1.45;0.70;;;21.20;99.90;;;;;;5091434;28;20101;-46
2022/10/18 13:06:58;;;;;;;2.90;1.35;;;21.10;99.90;;;;;;5091576;28;20050;-50